Terminal Aerodrome Forecast
Issued by NWS

Current Version | Previous Version | Text Only | Print | Product List | Glossary On
Versions: 1 2 3 4 5 6 7 8 9 10 11 12 13 14 15 16 17 18 19 20 21 22 23 24 25 26 27 28 29 30 31 32 33 34 35 36 37
000
FTUS43 KDTX 221120
TAFPTK
TAF
KPTK 221120Z 2212/2312 35007KT P6SM OVC018
     FM221400 36007KT P6SM OVC025
     FM221600 36007KT P6SM BKN030
     FM222000 01007KT P6SM SCT035
     FM222300 02004KT P6SM SKC=

USA.gov is the U.S. government's official web portal to all federal, state and local government web resources and services.